createdAt,value
2016-07-24T00:00:44.192Z,94.96
2016-07-24T00:01:44.171Z,95.11
2016-07-24T00:02:44.163Z,95.11
2016-07-24T00:03:44.166Z,95.21
2016-07-24T00:04:43.427Z,95.31
2016-07-24T00:05:44.134Z,94.82
2016-07-24T00:06:44.127Z,94.82
2016-07-24T00:07:43.400Z,94.73
2016-07-24T00:08:43.382Z,95.01
2016-07-24T00:09:44.085Z,95.4
2016-07-24T00:10:44.079Z,95.5
2016-07-24T00:11:44.077Z,95.59
2016-07-24T00:12:44.125Z,95.88
2016-07-24T00:13:43.329Z,95.4
2016-07-24T00:14:43.344Z,95.59
2016-07-24T00:15:44.026Z,95.21
2016-07-24T00:16:44.050Z,95.4
2016-07-24T00:17:44.026Z,95.21
2016-07-24T00:18:43.994Z,95.5
2016-07-24T00:19:43.276Z,95.59
2016-07-24T00:20:43.986Z,95.4
2016-07-24T00:21:43.957Z,95.59
2016-07-24T00:22:43.965Z,95.69
2016-07-24T00:23:43.948Z,95.4
2016-07-24T00:24:43.939Z,95.21
2016-07-24T00:25:43.209Z,96.17
2016-07-24T00:26:43.919Z,96.46
2016-07-24T00:27:43.907Z,96.84
2016-07-24T00:28:43.909Z,97.77
2016-07-24T00:29:43.158Z,98.15
2016-07-24T00:30:43.865Z,98.44
2016-07-24T00:31:43.854Z,98.29
2016-07-24T00:32:43.846Z,98.44
2016-07-24T00:33:43.840Z,97.81
2016-07-24T00:34:43.824Z,97.28
2016-07-24T00:35:43.812Z,96.8
2016-07-24T00:36:43.098Z,97.19
2016-07-24T00:37:43.796Z,97.57
2016-07-24T00:38:43.139Z,97.57
2016-07-24T00:39:43.770Z,97.67
2016-07-24T00:40:43.766Z,97.57
2016-07-24T00:41:43.029Z,97.42
2016-07-24T00:42:43.733Z,97.28
2016-07-24T00:43:43.731Z,97.38
2016-07-24T00:44:43.719Z,97.67
2016-07-24T00:45:43.702Z,97.57
2016-07-24T00:46:43.695Z,98.05
2016-07-24T00:47:43.676Z,98.25
2016-07-24T00:48:43.675Z,98.15
2016-07-24T00:49:43.663Z,98.05
2016-07-24T00:50:43.654Z,98.05
2016-07-24T00:51:43.635Z,97.86
2016-07-24T00:52:43.620Z,98.44
2016-07-24T00:53:43.709Z,98.44
2016-07-24T00:54:42.898Z,97.96
2016-07-24T00:55:42.878Z,98.34
2016-07-24T00:56:43.585Z,98.15
2016-07-24T00:57:43.566Z,98.25
2016-07-24T00:58:43.562Z,98.34
2016-07-24T00:59:43.627Z,98.05
2016-07-24T01:00:43.554Z,97.86
2016-07-24T01:01:43.604Z,97.77
2016-07-24T01:02:43.519Z,98.05
2016-07-24T01:03:43.533Z,97.86
2016-07-24T01:04:42.787Z,98.25
2016-07-24T01:05:43.499Z,98.15
2016-07-24T01:06:43.475Z,98.25
2016-07-24T01:07:42.748Z,98.54
2016-07-24T01:08:43.458Z,98.25
2016-07-24T01:09:42.749Z,97.67
2016-07-24T01:10:43.439Z,97.57
2016-07-24T01:11:43.488Z,97.67
2016-07-24T01:12:43.410Z,97.77
2016-07-24T01:13:43.437Z,97.67
2016-07-24T01:14:43.390Z,98.05
2016-07-24T01:15:43.380Z,98.05
2016-07-24T01:16:43.359Z,97.96
2016-07-24T01:17:43.354Z,97.81
2016-07-24T01:18:43.331Z,98.63
2016-07-24T01:19:43.336Z,99.35
2016-07-24T01:20:43.332Z,99.35
2016-07-24T01:21:43.304Z,99.64
2016-07-24T01:22:43.298Z,99.93
2016-07-24T01:23:42.656Z,99.64
2016-07-24T01:24:43.277Z,98.87
2016-07-24T01:25:43.269Z,98.39
2016-07-24T01:26:43.247Z,98.39
2016-07-24T01:27:43.242Z,98.39
2016-07-24T01:28:43.236Z,99.02
2016-07-24T01:29:42.499Z,98.15
2016-07-24T01:30:43.207Z,98.34
2016-07-24T01:31:43.209Z,98.05
2016-07-24T01:32:43.185Z,98.15
2016-07-24T01:33:43.174Z,98.15
2016-07-24T01:34:43.168Z,98.15
2016-07-24T01:35:43.157Z,98.15
2016-07-24T01:36:43.145Z,98.15
2016-07-24T01:37:43.139Z,98.92
2016-07-24T01:38:42.444Z,99.45
2016-07-24T01:39:43.110Z,99.45
2016-07-24T01:40:43.117Z,99.99
2016-07-24T01:41:43.091Z,99.99
2016-07-24T01:42:43.077Z,99.99
2016-07-24T01:43:43.060Z,99.99
2016-07-24T01:44:43.055Z,99.74
2016-07-24T01:45:43.044Z,99.64
2016-07-24T01:46:43.038Z,99.74
2016-07-24T01:47:43.019Z,99.45
2016-07-24T01:48:43.011Z,99.88
2016-07-24T01:49:43.001Z,99.69
2016-07-24T01:50:42.991Z,99.4
2016-07-24T01:51:42.970Z,99.55
2016-07-24T01:52:42.257Z,99.26
2016-07-24T01:53:42.241Z,99.64
2016-07-24T01:54:42.950Z,99.55
2016-07-24T01:55:42.219Z,99.64
2016-07-24T01:56:42.939Z,99.99
2016-07-24T01:57:42.920Z,99.99
2016-07-24T01:58:43.007Z,99.99
2016-07-24T01:59:42.898Z,99.93
2016-07-24T02:00:42.875Z,99.93
2016-07-24T02:01:42.876Z,99.93
2016-07-24T02:02:42.907Z,99.84
2016-07-24T02:03:42.836Z,99.93
2016-07-24T02:04:42.119Z,99.84
2016-07-24T02:05:42.187Z,99.99
2016-07-24T02:06:42.820Z,99.93
2016-07-24T02:07:42.080Z,99.55
2016-07-24T02:08:42.067Z,99.35
2016-07-24T02:09:42.775Z,99.55
2016-07-24T02:10:42.771Z,99.35
2016-07-24T02:11:42.761Z,98.58
2016-07-24T02:12:42.741Z,98.97
2016-07-24T02:13:42.726Z,98.87
2016-07-24T02:14:42.714Z,99.35
2016-07-24T02:15:42.705Z,99.64
2016-07-24T02:16:42.746Z,98.87
2016-07-24T02:17:42.681Z,98.49
2016-07-24T02:18:42.687Z,98.97
2016-07-24T02:19:42.660Z,98.97
2016-07-24T02:20:42.650Z,99.16
2016-07-24T02:21:42.639Z,99.55
2016-07-24T02:22:42.621Z,99.55
2016-07-24T02:23:42.613Z,99.45
2016-07-24T02:24:42.608Z,99.64
2016-07-24T02:25:42.597Z,99.45
2016-07-24T02:26:41.871Z,99.26
2016-07-24T02:27:41.852Z,99.35
2016-07-24T02:28:42.563Z,99.55
2016-07-24T02:29:42.550Z,99.99
2016-07-24T02:30:42.545Z,99.99
2016-07-24T02:31:42.526Z,99.99
2016-07-24T02:32:42.519Z,99.99
2016-07-24T02:33:42.507Z,99.99
2016-07-24T02:34:42.490Z,99.99
2016-07-24T02:35:42.480Z,99.99
2016-07-24T02:36:41.760Z,99.99
2016-07-24T02:37:42.456Z,99.99
2016-07-24T02:38:42.449Z,99.99
2016-07-24T02:39:42.439Z,99.99
2016-07-24T02:40:42.438Z,99.99
2016-07-24T02:41:42.420Z,99.99
2016-07-24T02:42:42.401Z,99.99
2016-07-24T02:43:42.396Z,99.99
2016-07-24T02:44:42.388Z,99.99
2016-07-24T02:45:42.368Z,99.99
2016-07-24T02:46:42.351Z,99.99
2016-07-24T02:47:42.351Z,99.99
2016-07-24T02:48:42.335Z,99.99
2016-07-24T02:49:42.324Z,99.99
2016-07-24T02:50:42.317Z,99.99
2016-07-24T02:51:42.300Z,99.99
2016-07-24T02:52:42.294Z,99.99
2016-07-24T02:53:42.278Z,99.99
2016-07-24T02:54:42.263Z,99.99
2016-07-24T02:55:42.254Z,99.99
2016-07-24T02:56:42.240Z,99.99
2016-07-24T02:57:42.230Z,99.99
2016-07-24T02:58:41.504Z,99.99
2016-07-24T02:59:42.210Z,99.99
2016-07-24T03:00:42.198Z,99.99
2016-07-24T03:01:42.191Z,99.99
2016-07-24T03:02:42.181Z,99.99
2016-07-24T03:03:42.174Z,99.99
2016-07-24T03:04:42.153Z,99.99
2016-07-24T03:05:42.200Z,99.99
2016-07-24T03:06:41.431Z,99.99
2016-07-24T03:07:42.124Z,99.99
2016-07-24T03:08:42.104Z,99.99
2016-07-24T03:09:42.097Z,99.99
2016-07-24T03:10:42.081Z,99.99
2016-07-24T03:11:42.080Z,99.99
2016-07-24T03:12:41.355Z,99.99
2016-07-24T03:13:42.047Z,99.99
2016-07-24T03:14:42.031Z,99.99
2016-07-24T03:15:42.024Z,99.99
2016-07-24T03:16:41.311Z,99.99
2016-07-24T03:17:42.006Z,99.99
2016-07-24T03:18:41.998Z,99.99
2016-07-24T03:19:41.990Z,99.99
2016-07-24T03:20:42.014Z,99.99
2016-07-24T03:21:41.957Z,99.99
2016-07-24T03:22:41.950Z,99.99
2016-07-24T03:23:41.939Z,99.99
2016-07-24T03:24:41.922Z,99.99
2016-07-24T03:25:41.199Z,99.99
2016-07-24T03:26:41.899Z,99.99
2016-07-24T03:27:41.898Z,99.99
2016-07-24T03:28:41.873Z,99.99
2016-07-24T03:29:41.864Z,99.99
2016-07-24T03:30:41.854Z,99.99
2016-07-24T03:31:41.839Z,99.99
2016-07-24T03:32:41.827Z,99.99
2016-07-24T03:33:41.817Z,99.99
2016-07-24T03:34:41.810Z,99.99
2016-07-24T03:35:41.796Z,99.99
2016-07-24T03:36:41.778Z,99.99
2016-07-24T03:37:41.778Z,99.99
2016-07-24T03:38:41.764Z,99.99
2016-07-24T03:39:41.749Z,99.99
2016-07-24T03:40:41.733Z,99.99
2016-07-24T03:41:41.723Z,99.99
2016-07-24T03:42:41.710Z,99.99
2016-07-24T03:43:41.281Z,99.99
2016-07-24T03:44:40.967Z,99.99
2016-07-24T03:45:41.674Z,99.99
2016-07-24T03:46:41.026Z,99.99
2016-07-24T03:47:41.653Z,99.99
2016-07-24T03:48:41.660Z,99.99
2016-07-24T03:49:41.638Z,99.99
2016-07-24T03:50:41.629Z,99.99
2016-07-24T03:51:41.612Z,99.99
2016-07-24T03:52:41.610Z,99.99
2016-07-24T03:53:41.589Z,99.99
2016-07-24T03:54:41.638Z,99.99
2016-07-24T03:55:40.856Z,99.99
2016-07-24T03:56:41.616Z,99.99
2016-07-24T03:57:41.548Z,99.99
2016-07-24T03:58:41.528Z,99.99
2016-07-24T03:59:41.530Z,99.99
2016-07-24T04:00:41.509Z,99.99
2016-07-24T04:01:41.495Z,99.99
2016-07-24T04:02:41.520Z,99.99
2016-07-24T04:03:40.757Z,99.99
2016-07-24T04:04:41.456Z,99.99
2016-07-24T04:05:41.440Z,99.99
2016-07-24T04:06:41.449Z,99.99
2016-07-24T04:07:41.419Z,99.99
2016-07-24T04:08:41.415Z,99.99
2016-07-24T04:09:41.401Z,99.99
2016-07-24T04:10:41.404Z,99.99
2016-07-24T04:11:41.377Z,99.99
2016-07-24T04:12:40.702Z,99.99
2016-07-24T04:13:41.352Z,99.99
2016-07-24T04:14:41.336Z,99.99
2016-07-24T04:15:41.327Z,99.99
2016-07-24T04:16:41.315Z,99.99
2016-07-24T04:17:41.307Z,99.99
2016-07-24T04:18:41.294Z,99.99
2016-07-24T04:19:41.286Z,99.99
2016-07-24T04:20:41.264Z,99.99
2016-07-24T04:21:41.254Z,99.99
2016-07-24T04:22:41.284Z,99.99
2016-07-24T04:23:41.245Z,99.99
2016-07-24T04:24:41.227Z,99.99
2016-07-24T04:25:41.214Z,99.99
2016-07-24T04:26:41.207Z,99.99
2016-07-24T04:27:41.192Z,99.99
2016-07-24T04:28:40.464Z,99.99
2016-07-24T04:29:41.173Z,99.99
2016-07-24T04:30:41.156Z,99.99
2016-07-24T04:31:41.142Z,99.99
2016-07-24T04:32:41.141Z,99.99
2016-07-24T04:33:41.121Z,99.99
2016-07-24T04:34:41.105Z,99.99
2016-07-24T04:35:41.096Z,99.99
2016-07-24T04:36:41.082Z,99.99
2016-07-24T04:37:41.073Z,99.99
2016-07-24T04:38:41.061Z,99.99
2016-07-24T04:39:41.050Z,99.99
2016-07-24T04:40:40.326Z,99.99
2016-07-24T04:41:41.027Z,99.99
2016-07-24T04:42:41.020Z,99.99
2016-07-24T04:43:40.312Z,99.99
2016-07-24T04:44:40.285Z,99.99
2016-07-24T04:45:40.987Z,99.99
2016-07-24T04:46:40.980Z,99.99
2016-07-24T04:47:40.961Z,99.99
2016-07-24T04:48:40.944Z,99.99
2016-07-24T04:49:40.937Z,99.99
2016-07-24T04:50:40.925Z,99.99
2016-07-24T04:51:40.198Z,99.99
2016-07-24T04:52:40.906Z,99.99
2016-07-24T04:53:40.248Z,99.99
2016-07-24T04:54:40.874Z,99.99
2016-07-24T04:55:40.939Z,99.99
2016-07-24T04:56:40.859Z,99.99
2016-07-24T04:57:40.156Z,99.99
2016-07-24T04:58:40.827Z,99.99
2016-07-24T04:59:40.859Z,99.99
2016-07-24T05:00:40.809Z,99.99
2016-07-24T05:01:40.800Z,99.99
2016-07-24T05:02:40.788Z,99.99
2016-07-24T05:03:40.776Z,99.99
2016-07-24T05:04:40.771Z,99.99
2016-07-24T05:05:40.752Z,99.99
2016-07-24T05:06:40.748Z,99.99
2016-07-24T05:07:40.727Z,99.99
2016-07-24T05:08:40.719Z,99.99
2016-07-24T05:09:40.705Z,99.99
2016-07-24T05:10:39.984Z,99.99
2016-07-24T05:11:40.688Z,99.99
2016-07-24T05:12:39.962Z,99.99
2016-07-24T05:13:40.666Z,99.99
2016-07-24T05:14:40.656Z,99.99
2016-07-24T05:15:40.659Z,99.99
2016-07-24T05:16:40.625Z,99.99
2016-07-24T05:17:39.905Z,99.99
2016-07-24T05:18:40.610Z,99.99
2016-07-24T05:19:40.658Z,99.99
2016-07-24T05:20:40.582Z,99.99
2016-07-24T05:21:40.594Z,99.99
2016-07-24T05:22:40.561Z,99.99
2016-07-24T05:23:40.552Z,99.99
2016-07-24T05:24:40.544Z,99.99
2016-07-24T05:25:39.827Z,99.99
2016-07-24T05:26:40.516Z,99.99
2016-07-24T05:27:40.562Z,99.99
2016-07-24T05:28:40.496Z,99.99
2016-07-24T05:29:40.551Z,99.98
2016-07-24T05:30:40.475Z,99.99
2016-07-24T05:31:40.494Z,99.99
2016-07-24T05:32:40.451Z,99.79
2016-07-24T05:33:40.445Z,99.6
2016-07-24T05:34:40.431Z,99.6
2016-07-24T05:35:40.431Z,99.21
2016-07-24T05:36:40.415Z,98.44
2016-07-24T05:37:40.405Z,97.96
2016-07-24T05:38:40.391Z,97.42
2016-07-24T05:39:40.384Z,96.94
2016-07-24T05:40:40.376Z,97.67
2016-07-24T05:41:40.360Z,98.05
2016-07-24T05:42:40.362Z,97.86
2016-07-24T05:43:40.337Z,97.47
2016-07-24T05:44:40.321Z,96.99
2016-07-24T05:45:40.311Z,97.14
2016-07-24T05:46:40.300Z,97.24
2016-07-24T05:47:40.293Z,96.8
2016-07-24T05:48:40.287Z,96.94
2016-07-24T05:49:40.274Z,96.89
2016-07-24T05:50:40.267Z,96.94
2016-07-24T05:51:39.547Z,96.08
2016-07-24T05:52:39.529Z,95.59
2016-07-24T05:53:39.520Z,95.4
2016-07-24T05:54:40.223Z,95.2
2016-07-24T05:55:40.220Z,95.3
2016-07-24T05:56:40.206Z,94.92
2016-07-24T05:57:40.206Z,95.15
2016-07-24T05:58:40.190Z,94.96
2016-07-24T05:59:40.175Z,95.15
2016-07-24T06:00:40.166Z,94.77
2016-07-24T06:01:40.150Z,94.09
2016-07-24T06:02:40.150Z,94.38
2016-07-24T06:03:40.136Z,94.48
2016-07-24T06:04:40.120Z,94.38
2016-07-24T06:05:40.119Z,94.48
2016-07-24T06:06:40.106Z,94.77
2016-07-24T06:07:40.098Z,94.29
2016-07-24T06:08:40.083Z,94.29
2016-07-24T06:09:40.078Z,94.77
2016-07-24T06:10:40.066Z,94.38
2016-07-24T06:11:40.067Z,94.53
2016-07-24T06:12:40.047Z,93.95
2016-07-24T06:13:40.035Z,93.75
2016-07-24T06:14:40.021Z,93.37
2016-07-24T06:15:40.020Z,93.22
2016-07-24T06:16:40.007Z,93.9
2016-07-24T06:17:40.001Z,93.6
2016-07-24T06:18:39.996Z,94.38
2016-07-24T06:19:39.978Z,93.66
2016-07-24T06:20:39.257Z,93.51
2016-07-24T06:21:39.973Z,93.7
2016-07-24T06:22:39.950Z,93.02
2016-07-24T06:23:39.934Z,93.12
2016-07-24T06:24:39.930Z,93.99
2016-07-24T06:25:39.920Z,93.32
2016-07-24T06:26:39.915Z,93.8
2016-07-24T06:27:39.902Z,93.51
2016-07-24T06:28:39.192Z,93.22
2016-07-24T06:29:39.881Z,93.55
2016-07-24T06:30:39.879Z,92.88
2016-07-24T06:31:39.873Z,92.2
2016-07-24T06:32:39.136Z,92.3
2016-07-24T06:33:39.852Z,92.4
2016-07-24T06:34:39.834Z,92.88
2016-07-24T06:35:39.826Z,92.2
2016-07-24T06:36:39.819Z,92.2
2016-07-24T06:37:39.817Z,93.07
2016-07-24T06:38:39.811Z,93.07
2016-07-24T06:39:39.080Z,91.76
2016-07-24T06:40:39.773Z,91.66
2016-07-24T06:41:39.772Z,91.82
2016-07-24T06:42:39.059Z,90.84
2016-07-24T06:43:39.757Z,91.14
2016-07-24T06:44:39.749Z,91.38
2016-07-24T06:45:39.743Z,90.8
2016-07-24T06:46:39.741Z,90.6
2016-07-24T06:47:39.016Z,91.28
2016-07-24T06:48:39.705Z,90.99
2016-07-24T06:49:39.709Z,90.89
2016-07-24T06:50:39.686Z,92.15
2016-07-24T06:51:39.806Z,92.29
2016-07-24T06:52:39.679Z,92.1
2016-07-24T06:53:39.663Z,90.84
2016-07-24T06:54:39.654Z,90.26
2016-07-24T06:55:39.647Z,89.48
2016-07-24T06:56:39.656Z,89.09
2016-07-24T06:57:39.626Z,88.37
2016-07-24T06:58:39.804Z,87.98
2016-07-24T06:59:39.618Z,89.92
2016-07-24T07:00:38.901Z,89.04
2016-07-24T07:01:39.591Z,88.37
2016-07-24T07:02:39.586Z,88.17
2016-07-24T07:03:39.592Z,88.37
2016-07-24T07:04:38.861Z,87.98
2016-07-24T07:05:38.850Z,89.04
2016-07-24T07:06:39.561Z,88.17
2016-07-24T07:07:39.571Z,88.75
2016-07-24T07:08:39.533Z,89.33
2016-07-24T07:09:39.531Z,88.85
2016-07-24T07:10:39.530Z,89.09
2016-07-24T07:11:39.509Z,88.31
2016-07-24T07:12:38.782Z,87.92
2016-07-24T07:13:39.500Z,86.66
2016-07-24T07:14:38.769Z,87.82
2016-07-24T07:15:39.477Z,88.12
2016-07-24T07:16:39.469Z,87.92
2016-07-24T07:17:39.479Z,88.21
2016-07-24T07:18:39.457Z,88.51
2016-07-24T07:19:38.730Z,89.96
2016-07-24T07:20:39.442Z,87.82
2016-07-24T07:21:39.484Z,88.02
2016-07-24T07:22:39.428Z,88.26
2016-07-24T07:23:39.406Z,88.6
2016-07-24T07:24:38.702Z,88.26
2016-07-24T07:25:39.401Z,88.74
2016-07-24T07:26:39.437Z,87.19
2016-07-24T07:27:39.382Z,87.96
2016-07-24T07:28:39.437Z,88.84
2016-07-24T07:29:39.364Z,88.65
2016-07-24T07:30:39.404Z,88.06
2016-07-24T07:31:39.339Z,87.87
2016-07-24T07:32:39.420Z,88.2
2016-07-24T07:33:39.328Z,88.79
2016-07-24T07:34:38.618Z,87.33
2016-07-24T07:35:39.317Z,87.91
2016-07-24T07:36:39.331Z,86.36
2016-07-24T07:37:39.299Z,86.36
2016-07-24T07:38:39.333Z,85.72
2016-07-24T07:39:38.571Z,86.4
2016-07-24T07:40:39.279Z,87.18
2016-07-24T07:41:38.563Z,89.03
2016-07-24T07:42:39.270Z,86.5
2016-07-24T07:43:39.253Z,86.21
2016-07-24T07:44:39.249Z,84.75
2016-07-24T07:45:39.251Z,86.11
2016-07-24T07:46:39.245Z,86.79
2016-07-24T07:47:39.224Z,85.86
2016-07-24T07:48:39.221Z,86.44
2016-07-24T07:49:38.498Z,86.05
2016-07-24T07:50:39.209Z,85.57
2016-07-24T07:51:38.497Z,83.67
2016-07-24T07:52:38.477Z,84.31
2016-07-24T07:53:39.190Z,84.55
2016-07-24T07:54:39.176Z,84.25
2016-07-24T07:55:39.161Z,84.25
2016-07-24T07:56:39.157Z,83.67
2016-07-24T07:57:38.437Z,84.35
2016-07-24T07:58:38.442Z,84.25
2016-07-24T07:59:39.136Z,83.76
2016-07-24T08:00:39.160Z,82.31
2016-07-24T08:01:39.131Z,81.92
2016-07-24T08:02:39.128Z,82.74
2016-07-24T08:03:39.107Z,82.06
2016-07-24T08:04:39.115Z,80.89
2016-07-24T08:05:39.180Z,81.9
2016-07-24T08:06:39.086Z,80.64
2016-07-24T08:07:39.082Z,80.89
2016-07-24T08:08:38.359Z,81.09
2016-07-24T08:09:39.074Z,81.63
2016-07-24T08:10:39.069Z,82.99
2016-07-24T08:11:39.094Z,82.21
2016-07-24T08:12:38.325Z,82.46
2016-07-24T08:13:38.330Z,83.04
2016-07-24T08:14:38.315Z,83.1
2016-07-24T08:15:38.308Z,81.98
2016-07-24T08:16:39.011Z,81.43
2016-07-24T08:17:39.068Z,81.14
2016-07-24T08:18:39.010Z,80.3
2016-07-24T08:19:38.282Z,79.47
2016-07-24T08:20:38.994Z,78.15
2016-07-24T08:21:38.992Z,77.11
2016-07-24T08:22:38.260Z,76.01
2016-07-24T08:23:38.268Z,75.32
2016-07-24T08:24:38.961Z,75.32
2016-07-24T08:25:38.237Z,75.36
2016-07-24T08:26:38.939Z,75.3
2016-07-24T08:27:38.960Z,75.3
2016-07-24T08:28:38.935Z,75.65
2016-07-24T08:29:38.969Z,75.07
2016-07-24T08:30:38.930Z,74.85
2016-07-24T08:31:38.928Z,74.69
2016-07-24T08:32:38.268Z,73.33
2016-07-24T08:33:38.911Z,72.94
2016-07-24T08:34:38.919Z,73.55
2016-07-24T08:35:38.911Z,74.87
2016-07-24T08:36:38.898Z,72.86
2016-07-24T08:37:38.882Z,73.68
2016-07-24T08:38:38.885Z,73.68
2016-07-24T08:39:38.891Z,73.68
2016-07-24T08:40:38.877Z,71.96
2016-07-24T08:41:38.151Z,70.37
2016-07-24T08:42:38.157Z,69.24
2016-07-24T08:43:38.855Z,68.98
2016-07-24T08:44:38.858Z,68.68
2016-07-24T08:45:38.847Z,70.51
2016-07-24T08:46:38.166Z,69.24
2016-07-24T08:47:38.126Z,68.91
2016-07-24T08:48:38.124Z,66.99
2016-07-24T08:49:38.836Z,68.13
2016-07-24T08:50:38.835Z,68.59
2016-07-24T08:51:38.841Z,68.03
2016-07-24T08:52:38.119Z,67.22
2016-07-24T08:53:38.830Z,67.22
2016-07-24T08:54:38.829Z,66.96
2016-07-24T08:55:38.832Z,66.44
2016-07-24T08:56:38.828Z,65.88
2016-07-24T08:57:38.826Z,64.05
2016-07-24T08:58:38.823Z,65.03
2016-07-24T08:59:38.827Z,65.85
2016-07-24T09:00:38.828Z,66.89
2016-07-24T09:01:38.826Z,67.19
2016-07-24T09:02:38.825Z,69.5
2016-07-24T09:03:38.827Z,69.07
2016-07-24T09:04:38.121Z,70.02
2016-07-24T09:05:38.827Z,70.02
2016-07-24T09:06:38.815Z,69.92
2016-07-24T09:07:38.833Z,70.02
2016-07-24T09:08:38.805Z,70.51
2016-07-24T09:09:38.809Z,70.93
2016-07-24T09:10:38.099Z,71.68
2016-07-24T09:11:38.806Z,72.81
2016-07-24T09:12:38.800Z,73.07
2016-07-24T09:13:38.079Z,73.36
2016-07-24T09:14:38.796Z,72.78
2016-07-24T09:15:38.794Z,73.07
2016-07-24T09:16:38.791Z,73.95
2016-07-24T09:17:38.784Z,73.01
2016-07-24T09:18:38.063Z,73.66
2016-07-24T09:19:38.777Z,74.05
2016-07-24T09:20:38.060Z,75.47
2016-07-24T09:21:38.761Z,74.6
2016-07-24T09:22:38.764Z,75.37
2016-07-24T09:23:38.763Z,75.34
2016-07-24T09:24:38.039Z,75.53
2016-07-24T09:25:38.039Z,76.08
2016-07-24T09:26:38.037Z,76.73
2016-07-24T09:27:38.735Z,75.65
2016-07-24T09:28:38.737Z,75.69
2016-07-24T09:29:38.021Z,76.28
2016-07-24T09:30:38.725Z,76.67
2016-07-24T09:31:38.737Z,75.59
2016-07-24T09:32:38.708Z,74.82
2016-07-24T09:33:38.712Z,75.1
2016-07-24T09:34:38.001Z,75.4
2016-07-24T09:35:38.697Z,74.82
2016-07-24T09:36:38.700Z,74.91
2016-07-24T09:37:38.683Z,75.1
2016-07-24T09:38:37.961Z,74.91
2016-07-24T09:39:38.698Z,75.63
2016-07-24T09:40:37.958Z,74.66
2016-07-24T09:41:37.961Z,75.14
2016-07-24T09:42:37.940Z,74.82
2016-07-24T09:43:38.671Z,75.01
2016-07-24T09:44:38.647Z,74.76
2016-07-24T09:45:38.661Z,73.97
2016-07-24T09:46:37.934Z,75.34
2016-07-24T09:47:37.916Z,73.39
2016-07-24T09:48:38.630Z,73.29
2016-07-24T09:49:38.620Z,74.56
2016-07-24T09:50:38.620Z,74.46
2016-07-24T09:51:38.607Z,74.46
2016-07-24T09:52:38.611Z,74.62
2016-07-24T09:53:38.597Z,73.35
2016-07-24T09:54:38.633Z,74.33
2016-07-24T09:55:37.872Z,75.16
2016-07-24T09:56:37.872Z,74.29
2016-07-24T09:57:38.590Z,74.68
2016-07-24T09:58:38.569Z,74.04
2016-07-24T09:59:37.848Z,74.33
2016-07-24T10:00:38.556Z,74.17
2016-07-24T10:01:38.557Z,73.1
2016-07-24T10:02:38.548Z,72.45
2016-07-24T10:03:38.547Z,72.45
2016-07-24T10:04:38.540Z,71.86
2016-07-24T10:05:38.540Z,72.25
2016-07-24T10:06:38.541Z,73.39
2016-07-24T10:07:38.528Z,73.13
2016-07-24T10:08:38.522Z,70.4
2016-07-24T10:09:38.509Z,70.21
2016-07-24T10:10:38.509Z,70.89
2016-07-24T10:11:38.493Z,70.89
2016-07-24T10:12:38.499Z,70.73
2016-07-24T10:13:38.496Z,70.86
2016-07-24T10:14:38.487Z,71.48
2016-07-24T10:15:38.479Z,70.21
2016-07-24T10:16:38.475Z,69.66
2016-07-24T10:17:38.460Z,68.26
2016-07-24T10:18:37.742Z,68.07
2016-07-24T10:19:38.454Z,68.49
2016-07-24T10:20:38.489Z,69.95
2016-07-24T10:21:37.733Z,70.31
2016-07-24T10:22:37.809Z,69.82
2016-07-24T10:23:38.436Z,69.92
2016-07-24T10:24:38.434Z,70.51
2016-07-24T10:25:38.477Z,68.65
2016-07-24T10:26:37.712Z,69.17
2016-07-24T10:27:38.422Z,68.39
2016-07-24T10:28:38.421Z,68.65
2016-07-24T10:29:38.403Z,68.16
2016-07-24T10:30:38.411Z,70.44
2016-07-24T10:31:38.405Z,69.82
2016-07-24T10:32:38.397Z,69.73
2016-07-24T10:33:38.403Z,68.46
2016-07-24T10:34:38.397Z,68.85
2016-07-24T10:35:38.386Z,69.98
2016-07-24T10:36:37.673Z,69.75
2016-07-24T10:37:38.379Z,70.14
2016-07-24T10:38:37.660Z,70.79
2016-07-24T10:39:38.370Z,71.86
2016-07-24T10:40:38.369Z,71.64
2016-07-24T10:41:38.355Z,72.51
2016-07-24T10:42:38.356Z,71.64
2016-07-24T10:43:38.349Z,71.67
2016-07-24T10:44:38.357Z,71.31
2016-07-24T10:45:38.338Z,70.6
2016-07-24T10:46:38.337Z,71.08
2016-07-24T10:47:38.337Z,71.54
2016-07-24T10:48:38.323Z,71.73
2016-07-24T10:49:38.321Z,72.28
2016-07-24T10:50:38.320Z,72.86
2016-07-24T10:51:38.311Z,73.32
2016-07-24T10:52:38.311Z,73.71
2016-07-24T10:53:38.297Z,73.32
2016-07-24T10:54:37.582Z,74.06
2016-07-24T10:55:38.287Z,75.13
2016-07-24T10:56:38.276Z,75.13
2016-07-24T10:57:38.269Z,74.58
2016-07-24T10:58:38.271Z,73.51
2016-07-24T10:59:38.263Z,73.51
2016-07-24T11:00:38.291Z,71.89
2016-07-24T11:01:38.258Z,72.41
2016-07-24T11:02:38.250Z,70.21
2016-07-24T11:03:38.261Z,68.68
2016-07-24T11:04:38.246Z,68.62
2016-07-24T11:05:38.244Z,68.55
2016-07-24T11:06:38.231Z,69.24
2016-07-24T11:07:38.231Z,68.98
2016-07-24T11:08:38.223Z,67.83
2016-07-24T11:09:38.207Z,67.12
2016-07-24T11:10:38.213Z,68.62
2016-07-24T11:11:38.198Z,66.96
2016-07-24T11:12:37.495Z,67.15
2016-07-24T11:13:38.189Z,68.39
2016-07-24T11:14:38.187Z,68.82
2016-07-24T11:15:38.182Z,69.4
2016-07-24T11:16:37.461Z,68.29
2016-07-24T11:17:38.175Z,68.46
2016-07-24T11:18:38.162Z,68.16
2016-07-24T11:19:38.153Z,70.02
2016-07-24T11:20:37.442Z,69.73
2016-07-24T11:21:38.147Z,71.15
2016-07-24T11:22:37.434Z,70.76
2016-07-24T11:23:38.147Z,71.45
2016-07-24T11:24:38.138Z,71.02
2016-07-24T11:25:38.130Z,71.51
2016-07-24T11:26:38.118Z,71.51
2016-07-24T11:27:38.117Z,69.95
2016-07-24T11:28:38.130Z,70.43
2016-07-24T11:29:38.118Z,70.67
2016-07-24T11:30:38.119Z,70.12
2016-07-24T11:31:38.097Z,70.41
2016-07-24T11:32:37.387Z,70.44
2016-07-24T11:33:37.378Z,70.15
2016-07-24T11:34:38.089Z,68.49
2016-07-24T11:35:37.365Z,68.23
2016-07-24T11:36:38.073Z,67.87
2016-07-24T11:37:38.064Z,66.89
2016-07-24T11:38:38.067Z,67.58
2016-07-24T11:39:38.079Z,68.49
2016-07-24T11:40:38.071Z,66.34
2016-07-24T11:41:38.060Z,66.34
2016-07-24T11:42:38.055Z,67.32
2016-07-24T11:43:38.049Z,65.06
2016-07-24T11:44:38.030Z,66.8
2016-07-24T11:45:38.043Z,66.34
2016-07-24T11:46:38.040Z,66.24
2016-07-24T11:47:38.028Z,66.53
2016-07-24T11:48:38.029Z,64.51
2016-07-24T11:49:38.025Z,64.09
2016-07-24T11:50:38.015Z,65.33
2016-07-24T11:51:37.308Z,65.33
2016-07-24T11:52:38.027Z,65.81
2016-07-24T11:53:38.009Z,67.19
2016-07-24T11:54:37.998Z,67.44
2016-07-24T11:55:37.996Z,66.86
2016-07-24T11:56:37.997Z,68.1
2016-07-24T11:57:37.984Z,68.29
2016-07-24T11:58:37.980Z,69.53
2016-07-24T11:59:37.972Z,70.21
2016-07-24T12:00:37.976Z,70.61
2016-07-24T12:01:37.972Z,70.67
2016-07-24T12:02:37.245Z,71.15
2016-07-24T12:03:37.969Z,71.7
2016-07-24T12:04:37.247Z,72.06
2016-07-24T12:05:37.230Z,71.57
2016-07-24T12:06:37.936Z,71.67
2016-07-24T12:07:37.938Z,70.31
2016-07-24T12:08:37.935Z,71.02
2016-07-24T12:09:37.219Z,70.14
2016-07-24T12:10:37.923Z,69.85
2016-07-24T12:11:37.929Z,71.12
2016-07-24T12:12:37.963Z,71.96
2016-07-24T12:13:37.191Z,72.06
2016-07-24T12:14:37.179Z,71.18
2016-07-24T12:15:37.902Z,70.73
2016-07-24T12:16:37.176Z,69.1
2016-07-24T12:17:37.899Z,68.85
2016-07-24T12:18:37.877Z,69.63
2016-07-24T12:19:37.872Z,67.68
2016-07-24T12:20:37.875Z,67.41
2016-07-24T12:21:37.872Z,67.09
2016-07-24T12:22:37.862Z,67.19
2016-07-24T12:23:37.859Z,67.87
2016-07-24T12:24:37.136Z,67.83
2016-07-24T12:25:37.841Z,69.1
2016-07-24T12:26:37.848Z,70.47
2016-07-24T12:27:37.844Z,70.37
2016-07-24T12:28:37.837Z,70.53
2016-07-24T12:29:37.827Z,69.98
2016-07-24T12:30:37.826Z,68.55
2016-07-24T12:31:37.837Z,67.51
2016-07-24T12:32:37.805Z,66.93
2016-07-24T12:33:37.806Z,65.56
2016-07-24T12:34:37.087Z,66.24
2016-07-24T12:35:37.798Z,66.53
2016-07-24T12:36:37.803Z,67.22
2016-07-24T12:37:37.798Z,69.24
2016-07-24T12:38:37.776Z,68.91
2016-07-24T12:39:37.776Z,70.04
2016-07-24T12:40:37.788Z,69.75
2016-07-24T12:41:37.762Z,70.34
2016-07-24T12:42:37.040Z,70.24
2016-07-24T12:43:37.770Z,68.59
2016-07-24T12:44:37.754Z,68.1
2016-07-24T12:45:37.758Z,68.39
2016-07-24T12:46:37.740Z,68.42
2016-07-24T12:47:37.737Z,68.32
2016-07-24T12:48:37.734Z,68.55
2016-07-24T12:49:37.733Z,67.77
2016-07-24T12:50:37.729Z,69.3
2016-07-24T12:51:37.721Z,70.34
2016-07-24T12:52:37.721Z,70.63
2016-07-24T12:53:37.706Z,71.12
2016-07-24T12:54:37.698Z,70.63